Time;durP1;ratioP1;P1;durP2;ratioP2;P2;SDS_P1;SDS_P2;PMS_P1;PMS_P2;Temp;Humidity;BMP_temperature;BMP_pressure;BME280_temperature;BME280_humidity;BME280_pressure;Samples;Min_cycle;Max_cycle;Signal;HPM_P1;HPM_P2
2022/05/04 00:00:09;;;;;;;8.50;5.68;;;;;;;;;;5015128;28;20392;-42
2022/05/04 00:02:59;;;;;;;9.40;5.10;;;;;;;;;;5015710;28;20291;-42
2022/05/04 00:05:26;;;;;;;11.02;5.22;;;;;;;;;;5014981;28;20303;-43
2022/05/04 00:07:54;;;;;;;8.82;5.18;;;;;;;;;;5014654;28;20647;-43
2022/05/04 00:10:22;;;;;;;7.40;5.25;;;;;;;;;;5014967;28;20213;-43
2022/05/04 00:12:49;;;;;;;7.85;5.57;;;;;;;;;;5014903;28;20209;-43
2022/05/04 00:15:17;;;;;;;7.88;5.28;;;;;;;;;;5015257;28;20229;-42
2022/05/04 00:17:44;;;;;;;9.85;5.60;;;;;;;;;;5014694;28;20252;-43
2022/05/04 00:20:11;;;;;;;10.45;5.38;;;;;;;;;;5014705;28;20236;-42
2022/05/04 00:22:39;;;;;;;6.88;5.00;;;;;;;;;;5014635;28;20201;-44
2022/05/04 00:25:07;;;;;;;10.15;5.38;;;;;;;;;;5014610;28;20661;-43
2022/05/04 00:27:34;;;;;;;8.35;5.13;;;;;;;;;;5014934;28;20198;-44
2022/05/04 00:30:01;;;;;;;9.10;4.90;;;;;;;;;;5014567;28;20213;-43
2022/05/04 00:32:28;;;;;;;6.45;4.82;;;;;;;;;;5014523;28;20205;-43
2022/05/04 00:34:56;;;;;;;9.07;5.32;;;;;;;;;;5014595;28;20208;-43
2022/05/04 00:37:23;;;;;;;9.65;5.20;;;;;;;;;;5015157;28;20216;-44
2022/05/04 00:39:50;;;;;;;7.97;5.55;;;;;;;;;;5014744;28;20205;-44
2022/05/04 00:42:20;;;;;;;8.48;5.10;;;;;;;;;;5014723;28;20267;-43
2022/05/04 00:44:49;;;;;;;7.55;5.18;;;;;;;;;;5015008;28;20206;-43
2022/05/04 00:47:17;;;;;;;8.55;5.28;;;;;;;;;;5018361;28;20648;-43
2022/05/04 00:49:46;;;;;;;11.68;5.85;;;;;;;;;;5018239;28;20686;-45
2022/05/04 00:52:16;;;;;;;9.38;5.50;;;;;;;;;;5030000;28;20208;-43
2022/05/04 00:54:45;;;;;;;6.82;5.10;;;;;;;;;;5038063;28;20291;-43
2022/05/04 00:57:17;;;;;;;8.02;5.22;;;;;;;;;;5036919;28;20639;-43
2022/05/04 00:59:44;;;;;;;8.75;5.32;;;;;;;;;;5037286;28;20232;-43
2022/05/04 01:02:11;;;;;;;8.55;5.32;;;;;;;;;;5037912;28;20212;-45
2022/05/04 01:04:38;;;;;;;7.63;5.70;;;;;;;;;;5037628;28;20204;-43
2022/05/04 01:07:07;;;;;;;8.45;5.15;;;;;;;;;;5037944;28;20577;-43
2022/05/04 01:09:34;;;;;;;12.57;5.47;;;;;;;;;;5037695;28;20300;-43
2022/05/04 01:12:01;;;;;;;9.10;5.47;;;;;;;;;;5037976;28;20205;-43
2022/05/04 01:14:28;;;;;;;8.38;5.43;;;;;;;;;;5037377;28;20205;-43
2022/05/04 01:16:55;;;;;;;7.85;5.40;;;;;;;;;;5037433;28;20296;-40
2022/05/04 01:19:23;;;;;;;8.50;5.20;;;;;;;;;;5037428;28;20216;-40
2022/05/04 01:21:50;;;;;;;8.98;5.57;;;;;;;;;;5037285;28;20232;-40
2022/05/04 01:24:17;;;;;;;8.88;5.95;;;;;;;;;;5036552;28;20635;-40
2022/05/04 01:26:44;;;;;;;11.07;6.38;;;;;;;;;;5037542;28;20196;-40
2022/05/04 01:29:14;;;;;;;10.13;5.22;;;;;;;;;;5037262;28;20204;-40
2022/05/04 01:31:41;;;;;;;8.43;5.70;;;;;;;;;;5037383;28;20205;-40
2022/05/04 01:34:08;;;;;;;10.48;5.45;;;;;;;;;;5037084;28;20631;-41
2022/05/04 01:36:35;;;;;;;8.40;5.78;;;;;;;;;;5037048;28;20201;-40
2022/05/04 01:39:02;;;;;;;9.68;5.25;;;;;;;;;;5037160;28;20224;-41
2022/05/04 01:44:15;;;;;;;11.23;5.38;;;;;;;;;;5037308;28;20189;-41
2022/05/04 01:46:42;;;;;;;7.90;5.22;;;;;;;;;;5037146;28;20208;-41
2022/05/04 01:49:09;;;;;;;7.90;5.32;;;;;;;;;;5036915;28;20582;-40
2022/05/04 01:51:37;;;;;;;8.23;5.57;;;;;;;;;;5037011;28;20212;-40
2022/05/04 01:54:04;;;;;;;7.55;5.88;;;;;;;;;;5036630;28;20208;-42
2022/05/04 01:56:31;;;;;;;7.40;5.03;;;;;;;;;;5035211;28;20201;-40
2022/05/04 01:58:58;;;;;;;10.15;6.13;;;;;;;;;;5036959;28;20224;-40
2022/05/04 02:01:25;;;;;;;8.90;5.75;;;;;;;;;;5036588;28;20205;-41
2022/05/04 02:03:53;;;;;;;7.75;5.43;;;;;;;;;;5036979;28;20275;-41
2022/05/04 02:06:20;;;;;;;7.18;5.40;;;;;;;;;;5035991;28;20547;-40
2022/05/04 02:08:47;;;;;;;7.93;6.15;;;;;;;;;;5035633;28;20725;-40
2022/05/04 02:11:14;;;;;;;9.13;6.20;;;;;;;;;;5036427;28;20209;-41
2022/05/04 02:13:42;;;;;;;8.57;5.80;;;;;;;;;;5035467;28;20204;-41
2022/05/04 02:16:09;;;;;;;8.23;6.43;;;;;;;;;;5036821;28;20244;-40
2022/05/04 02:18:36;;;;;;;7.20;5.78;;;;;;;;;;5036171;28;20311;-40
2022/05/04 02:21:03;;;;;;;10.77;6.47;;;;;;;;;;5036015;28;20254;-41
2022/05/04 02:23:30;;;;;;;8.65;6.47;;;;;;;;;;5036546;28;20205;-40
2022/05/04 02:25:57;;;;;;;9.93;6.07;;;;;;;;;;5036290;28;20211;-40
2022/05/04 02:28:24;;;;;;;6.53;5.82;;;;;;;;;;5035730;28;20644;-41
2022/05/04 02:30:51;;;;;;;8.80;5.88;;;;;;;;;;5035765;28;20631;-41
2022/05/04 02:33:18;;;;;;;8.73;5.35;;;;;;;;;;5035686;28;20219;-41
2022/05/04 02:38:35;;;;;;;14.48;5.20;;;;;;;;;;5035551;28;20220;-41
2022/05/04 02:41:03;;;;;;;9.40;5.88;;;;;;;;;;5035581;28;20542;-41
2022/05/04 02:43:30;;;;;;;7.78;5.20;;;;;;;;;;5035539;28;20220;-40
2022/05/04 02:45:57;;;;;;;7.55;5.07;;;;;;;;;;5035638;28;20214;-40
2022/05/04 02:48:25;;;;;;;7.32;5.20;;;;;;;;;;5035428;28;20209;-43
2022/05/04 02:50:52;;;;;;;7.50;4.93;;;;;;;;;;5035984;28;20235;-41
2022/05/04 02:53:19;;;;;;;8.95;4.78;;;;;;;;;;5035480;28;20208;-40
2022/05/04 02:55:46;;;;;;;9.88;5.20;;;;;;;;;;5035588;28;20204;-41
2022/05/04 02:58:13;;;;;;;6.70;4.80;;;;;;;;;;5035194;28;20201;-40
2022/05/04 03:00:40;;;;;;;6.93;4.60;;;;;;;;;;5035388;28;20200;-40
2022/05/04 03:03:07;;;;;;;10.20;5.93;;;;;;;;;;5035201;28;20232;-40
2022/05/04 03:05:34;;;;;;;10.88;6.72;;;;;;;;;;5035114;28;20222;-41
2022/05/04 03:08:02;;;;;;;8.50;5.72;;;;;;;;;;5034555;28;20689;-41
2022/05/04 03:10:29;;;;;;;9.27;5.13;;;;;;;;;;5034912;28;20201;-42
2022/05/04 03:12:56;;;;;;;8.18;5.07;;;;;;;;;;5035157;28;20201;-41
2022/05/04 03:15:23;;;;;;;8.05;5.05;;;;;;;;;;5035014;28;20254;-41
2022/05/04 03:17:50;;;;;;;9.57;4.97;;;;;;;;;;5035159;28;20205;-40
2022/05/04 03:20:17;;;;;;;8.43;4.80;;;;;;;;;;5034827;28;20679;-40
2022/05/04 03:22:45;;;;;;;5.68;4.47;;;;;;;;;;5035064;28;20201;-41
2022/05/04 03:25:12;;;;;;;7.43;4.50;;;;;;;;;;5034823;28;20580;-41
2022/05/04 03:27:39;;;;;;;7.30;4.82;;;;;;;;;;5034811;28;20201;-41
2022/05/04 03:30:07;;;;;;;6.53;4.47;;;;;;;;;;5035045;28;20209;-41
2022/05/04 03:32:34;;;;;;;5.68;4.50;;;;;;;;;;5034871;28;20204;-42
2022/05/04 03:35:02;;;;;;;6.75;4.90;;;;;;;;;;5035037;28;20200;-41
2022/05/04 03:37:29;;;;;;;5.15;4.28;;;;;;;;;;5035067;28;20242;-41
2022/05/04 03:39:57;;;;;;;8.93;4.97;;;;;;;;;;5034945;28;20233;-40
2022/05/04 03:42:24;;;;;;;6.78;4.63;;;;;;;;;;5034782;28;20207;-41
2022/05/04 03:44:51;;;;;;;10.30;5.28;;;;;;;;;;5034736;28;20208;-40
2022/05/04 03:47:19;;;;;;;6.68;4.95;;;;;;;;;;5034766;28;20655;-41
2022/05/04 03:49:46;;;;;;;8.70;5.15;;;;;;;;;;5034818;28;20287;-43
2022/05/04 03:52:14;;;;;;;7.35;4.28;;;;;;;;;;5027936;28;20209;-42
2022/05/04 03:54:41;;;;;;;6.38;4.55;;;;;;;;;;5028717;28;20201;-41
2022/05/04 03:57:08;;;;;;;8.57;4.75;;;;;;;;;;5015150;28;20592;-40
2022/05/04 03:59:35;;;;;;;6.53;4.55;;;;;;;;;;5022604;28;20252;-45
2022/05/04 04:02:03;;;;;;;8.45;4.28;;;;;;;;;;5019809;28;20590;-43
2022/05/04 04:04:30;;;;;;;6.93;4.30;;;;;;;;;;5024907;28;20197;-42
2022/05/04 04:06:57;;;;;;;7.97;4.53;;;;;;;;;;5028617;28;20667;-42
2022/05/04 04:09:25;;;;;;;7.03;4.72;;;;;;;;;;5016890;28;20213;-45
2022/05/04 04:11:52;;;;;;;6.65;4.43;;;;;;;;;;5027455;28;20275;-46
2022/05/04 04:14:19;;;;;;;8.20;4.32;;;;;;;;;;5034166;28;20225;-41
2022/05/04 04:16:46;;;;;;;6.82;4.63;;;;;;;;;;5033631;28;20285;-41
2022/05/04 04:19:13;;;;;;;10.63;5.15;;;;;;;;;;5017331;28;20280;-42
2022/05/04 04:21:53;;;;;;;7.68;4.28;;;;;;;;;;5017863;28;20701;-41
2022/05/04 04:24:21;;;;;;;8.52;4.35;;;;;;;;;;5017964;28;20590;-41
2022/05/04 04:26:48;;;;;;;8.43;4.88;;;;;;;;;;5025247;28;20228;-41
2022/05/04 04:29:16;;;;;;;9.68;4.72;;;;;;;;;;5037782;28;20248;-40
2022/05/04 04:31:43;;;;;;;9.30;4.82;;;;;;;;;;5037293;28;20224;-40
2022/05/04 04:34:11;;;;;;;5.90;4.57;;;;;;;;;;5037598;28;20221;-40
2022/05/04 04:36:40;;;;;;;7.15;5.07;;;;;;;;;;5037352;28;20248;-41
2022/05/04 04:39:08;;;;;;;11.00;5.10;;;;;;;;;;5030309;28;20596;-43
2022/05/04 04:41:35;;;;;;;7.40;4.78;;;;;;;;;;5015582;28;20225;-41
2022/05/04 04:44:03;;;;;;;9.90;4.82;;;;;;;;;;5017729;28;20723;-42
2022/05/04 04:46:30;;;;;;;9.30;5.05;;;;;;;;;;5017414;28;20229;-41
2022/05/04 04:48:58;;;;;;;11.05;4.85;;;;;;;;;;5023604;28;20228;-42
2022/05/04 04:51:25;;;;;;;9.65;4.78;;;;;;;;;;5036677;28;20312;-41
2022/05/04 04:53:52;;;;;;;7.35;3.80;;;;;;;;;;5035845;28;20690;-44
2022/05/04 04:56:20;;;;;;;6.63;4.45;;;;;;;;;;5043196;28;20219;-43
2022/05/04 04:58:47;;;;;;;9.65;4.40;;;;;;;;;;5056994;28;20220;-42
2022/05/04 05:01:14;;;;;;;6.28;4.43;;;;;;;;;;5057047;28;20235;-42
2022/05/04 05:03:41;;;;;;;7.18;4.05;;;;;;;;;;5056986;28;20277;-43
2022/05/04 05:06:11;;;;;;;9.60;3.70;;;;;;;;;;5056859;28;20227;-41
2022/05/04 05:08:41;;;;;;;5.40;3.70;;;;;;;;;;5056757;28;20599;-43
2022/05/04 05:11:08;;;;;;;8.48;4.13;;;;;;;;;;5056735;28;20220;-42
2022/05/04 05:16:06;;;;;;;6.38;3.38;;;;;;;;;;5056764;28;20701;-42
2022/05/04 05:16:23;;;;;;;7.10;3.65;;;;;;;;;;5056934;28;20228;-43
2022/05/04 05:18:50;;;;;;;6.80;3.78;;;;;;;;;;5056389;28;20273;-44
2022/05/04 05:21:18;;;;;;;6.60;3.72;;;;;;;;;;5056789;28;20243;-43
2022/05/04 05:23:45;;;;;;;6.88;3.72;;;;;;;;;;5056305;28;20220;-44
2022/05/04 05:26:12;;;;;;;4.72;3.40;;;;;;;;;;5050495;28;20228;-41
2022/05/04 05:28:39;;;;;;;5.10;3.50;;;;;;;;;;5036409;28;20240;-44
2022/05/04 05:31:07;;;;;;;7.93;3.65;;;;;;;;;;5035901;28;20271;-44
2022/05/04 05:33:34;;;;;;;8.20;3.70;;;;;;;;;;5036123;28;20244;-41
2022/05/04 05:36:01;;;;;;;8.18;3.67;;;;;;;;;;5036415;28;20566;-41
2022/05/04 05:38:29;;;;;;;5.75;3.38;;;;;;;;;;5036564;28;20561;-41
2022/05/04 05:40:56;;;;;;;9.77;3.92;;;;;;;;;;5035714;28;20252;-42
2022/05/04 05:43:23;;;;;;;7.38;3.72;;;;;;;;;;5036380;28;20228;-40
2022/05/04 05:45:50;;;;;;;6.28;3.45;;;;;;;;;;5036133;28;20221;-40
2022/05/04 05:48:19;;;;;;;4.95;3.60;;;;;;;;;;5036345;28;20675;-40
2022/05/04 05:50:47;;;;;;;7.78;3.63;;;;;;;;;;5036581;28;20248;-40
2022/05/04 05:53:14;;;;;;;6.53;3.45;;;;;;;;;;5036296;28;20224;-41
2022/05/04 05:55:42;;;;;;;6.78;3.70;;;;;;;;;;5036881;28;20316;-42
2022/05/04 05:58:11;;;;;;;7.85;3.97;;;;;;;;;;5055923;28;20227;-41
2022/05/04 06:00:38;;;;;;;6.68;3.42;;;;;;;;;;5056085;28;20247;-41
2022/05/04 06:03:05;;;;;;;8.77;3.97;;;;;;;;;;5055966;28;20220;-40
2022/05/04 06:05:33;;;;;;;5.63;3.63;;;;;;;;;;5055901;28;20227;-42
2022/05/04 06:08:00;;;;;;;8.00;3.65;;;;;;;;;;5055679;28;20679;-41
2022/05/04 06:10:28;;;;;;;8.05;3.92;;;;;;;;;;5055479;28;20281;-41
2022/05/04 06:12:56;;;;;;;9.38;4.05;;;;;;;;;;5055508;28;20255;-42
2022/05/04 06:15:23;;;;;;;8.40;3.70;;;;;;;;;;5055725;28;20234;-42
2022/05/04 06:17:50;;;;;;;6.38;3.75;;;;;;;;;;5055210;28;20702;-41
2022/05/04 06:20:17;;;;;;;6.00;3.80;;;;;;;;;;5055694;28;20297;-40
2022/05/04 06:22:44;;;;;;;8.27;3.80;;;;;;;;;;5055735;28;20285;-41
2022/05/04 06:25:11;;;;;;;8.25;3.55;;;;;;;;;;5055109;28;20246;-44
2022/05/04 06:27:39;;;;;;;6.10;3.80;;;;;;;;;;5037732;28;20576;-41
2022/05/04 06:35:39;;;;;;;7.75;4.53;;;;;;;;;;5035312;28;20220;-42
2022/05/04 06:38:10;;;;;;;10.38;4.20;;;;;;;;;;5035332;28;20236;-40
2022/05/04 06:40:38;;;;;;;8.23;3.95;;;;;;;;;;5034832;28;20291;-44
2022/05/04 06:43:05;;;;;;;7.53;3.75;;;;;;;;;;5035098;28;20242;-42
2022/05/04 06:45:32;;;;;;;6.43;4.25;;;;;;;;;;5035297;28;20231;-43
2022/05/04 06:47:59;;;;;;;4.72;3.38;;;;;;;;;;5034937;28;20232;-41
2022/05/04 06:50:26;;;;;;;6.18;4.05;;;;;;;;;;5035152;28;20246;-42
2022/05/04 06:52:53;;;;;;;8.80;3.40;;;;;;;;;;5034786;28;20236;-42
2022/05/04 06:55:20;;;;;;;6.55;2.95;;;;;;;;;;5034621;28;20225;-41
2022/05/04 06:57:47;;;;;;;7.80;3.35;;;;;;;;;;5053388;28;20228;-40
2022/05/04 07:00:15;;;;;;;8.32;3.22;;;;;;;;;;5054802;28;20297;-41
2022/05/04 07:02:43;;;;;;;7.05;3.10;;;;;;;;;;5054569;28;20752;-41
2022/05/04 07:05:10;;;;;;;7.63;3.42;;;;;;;;;;5054690;28;20228;-41
2022/05/04 07:07:38;;;;;;;6.97;3.55;;;;;;;;;;5054834;28;20216;-42
2022/05/04 07:10:05;;;;;;;6.30;2.85;;;;;;;;;;5054564;28;20228;-41
2022/05/04 07:12:32;;;;;;;7.40;2.38;;;;;;;;;;5054581;28;20238;-43
2022/05/04 07:15:00;;;;;;;6.30;2.80;;;;;;;;;;5054510;28;20269;-41
2022/05/04 07:17:27;;;;;;;6.53;2.50;;;;;;;;;;5054613;28;20227;-41
2022/05/04 07:19:55;;;;;;;8.10;3.55;;;;;;;;;;5054180;28;20239;-41
2022/05/04 07:22:23;;;;;;;5.82;2.45;;;;;;;;;;5053615;28;20701;-41
2022/05/04 07:24:50;;;;;;;4.78;2.42;;;;;;;;;;5053662;28;20292;-41
2022/05/04 07:27:17;;;;;;;8.32;2.80;;;;;;;;;;5039752;28;20235;-41
2022/05/04 07:29:46;;;;;;;6.55;3.05;;;;;;;;;;5034007;28;20228;-41
2022/05/04 07:32:14;;;;;;;5.50;2.75;;;;;;;;;;5034340;28;20225;-42
2022/05/04 07:34:41;;;;;;;8.90;2.90;;;;;;;;;;5034168;28;20221;-43
2022/05/04 07:37:09;;;;;;;8.95;3.13;;;;;;;;;;5034291;28;20294;-43
2022/05/04 07:42:26;;;;;;;9.52;2.83;;;;;;;;;;5034560;28;20232;-41
2022/05/04 07:45:08;;;;;;;8.57;2.78;;;;;;;;;;5034037;28;20260;-41
2022/05/04 07:47:36;;;;;;;10.25;2.78;;;;;;;;;;5034253;28;20306;-43
2022/05/04 07:53:45;;;;;;;13.02;2.55;;;;;;;;;;5033838;28;20225;-41
2022/05/04 07:56:15;;;;;;;6.28;2.47;;;;;;;;;;5038799;28;20690;-41
2022/05/04 07:58:42;;;;;;;10.88;2.30;;;;;;;;;;5054004;28;20557;-41
2022/05/04 08:06:41;;;;;;;5.53;2.30;;;;;;;;;;5053870;28;20232;-42
2022/05/04 08:09:08;;;;;;;9.52;2.38;;;;;;;;;;5053477;28;20554;-40
2022/05/04 08:11:35;;;;;;;10.15;2.25;;;;;;;;;;5053631;28;20678;-42
2022/05/04 08:14:03;;;;;;;6.45;2.70;;;;;;;;;;5053798;28;20689;-41
2022/05/04 08:16:30;;;;;;;4.85;2.30;;;;;;;;;;5053965;28;20231;-41
2022/05/04 08:18:59;;;;;;;8.32;2.25;;;;;;;;;;5053787;28;20582;-41
2022/05/04 08:21:26;;;;;;;8.25;2.28;;;;;;;;;;5053529;28;20239;-41
2022/05/04 08:23:53;;;;;;;6.13;2.35;;;;;;;;;;5051891;28;20231;-41
2022/05/04 08:26:22;;;;;;;3.97;1.77;;;;;;;;;;5040391;28;20219;-41
2022/05/04 08:28:55;;;;;;;6.18;2.05;;;;;;;;;;5053524;28;20227;-42
2022/05/04 08:31:23;;;;;;;7.88;2.10;;;;;;;;;;5053965;28;20242;-43
2022/05/04 08:33:50;;;;;;;4.82;2.25;;;;;;;;;;5053610;28;20258;-41
2022/05/04 08:36:17;;;;;;;4.38;1.95;;;;;;;;;;5053721;28;20227;-42
2022/05/04 08:38:44;;;;;;;10.63;2.00;;;;;;;;;;5053022;28;20240;-41
2022/05/04 08:41:11;;;;;;;8.88;1.85;;;;;;;;;;5053703;28;20235;-41
2022/05/04 08:43:39;;;;;;;8.77;2.10;;;;;;;;;;5053586;28;20246;-42
2022/05/04 08:46:15;;;;;;;6.32;2.25;;;;;;;;;;5053458;28;20224;-41
2022/05/04 08:48:43;;;;;;;5.82;2.00;;;;;;;;;;5053567;28;20537;-41
2022/05/04 08:51:10;;;;;;;5.95;1.75;;;;;;;;;;5052544;28;20244;-41
2022/05/04 08:53:39;;;;;;;5.50;1.80;;;;;;;;;;5052855;28;20674;-42
2022/05/04 08:56:06;;;;;;;5.10;1.75;;;;;;;;;;5048737;28;20228;-42
2022/05/04 08:58:37;;;;;;;6.90;2.20;;;;;;;;;;5033585;28;20237;-43
2022/05/04 09:01:04;;;;;;;4.18;1.60;;;;;;;;;;5044819;28;20240;-42
2022/05/04 09:03:32;;;;;;;4.32;1.70;;;;;;;;;;5053924;28;20291;-41
2022/05/04 09:05:59;;;;;;;8.93;2.13;;;;;;;;;;5054429;28;20224;-41
2022/05/04 09:09:08;;;;;;;6.57;1.80;;;;;;;;;;5058263;28;20188;-41
2022/05/04 09:11:42;;;;;;;7.10;2.00;;;;;;;;;;5057760;28;20203;-42
2022/05/04 09:14:12;;;;;;;9.27;2.03;;;;;;;;;;5057924;28;20199;-41
2022/05/04 09:16:40;;;;;;;6.68;1.67;;;;;;;;;;5057580;28;20553;-40
2022/05/04 09:19:10;;;;;;;6.53;2.00;;;;;;;;;;5057650;28;20283;-40
2022/05/04 09:21:39;;;;;;;3.55;1.80;;;;;;;;;;5057362;28;20228;-41
2022/05/04 09:24:07;;;;;;;7.57;1.90;;;;;;;;;;5057519;28;20210;-42
2022/05/04 09:26:44;;;;;;;5.38;1.90;;;;;;;;;;5057184;28;20265;-42
2022/05/04 09:29:12;;;;;;;10.07;1.52;;;;;;;;;;5057318;28;20207;-42
2022/05/04 09:31:41;;;;;;;11.05;1.90;;;;;;;;;;5057110;28;20635;-41
2022/05/04 09:34:09;;;;;;;5.57;1.85;;;;;;;;;;5056258;28;20273;-41
2022/05/04 09:45:15;;;;;;;5.65;1.60;;;;;;;;;;5036920;28;20211;-41
2022/05/04 09:47:46;;;;;;;6.40;1.58;;;;;;;;;;5036903;28;20208;-41
2022/05/04 09:50:16;;;;;;;3.60;1.42;;;;;;;;;;5037470;28;20271;-42
2022/05/04 09:52:48;;;;;;;2.60;1.17;;;;;;;;;;5037201;28;20590;-41
2022/05/04 09:55:18;;;;;;;2.92;1.05;;;;;;;;;;5036949;28;20201;-41
2022/05/04 09:57:46;;;;;;;4.88;1.60;;;;;;;;;;5036704;28;20212;-41
2022/05/04 10:00:17;;;;;;;6.72;1.30;;;;;;;;;;5036707;28;20213;-41
2022/05/04 10:02:44;;;;;;;7.43;1.50;;;;;;;;;;5036762;28;20213;-42
2022/05/04 10:05:13;;;;;;;9.52;1.80;;;;;;;;;;5036750;28;20292;-44
2022/05/04 10:07:41;;;;;;;5.30;1.75;;;;;;;;;;5036718;28;20208;-42
2022/05/04 10:10:10;;;;;;;8.80;1.60;;;;;;;;;;5036555;28;20209;-43
2022/05/04 10:12:39;;;;;;;4.25;1.40;;;;;;;;;;5036420;28;20523;-42
2022/05/04 10:15:08;;;;;;;7.28;1.58;;;;;;;;;;5036572;28;20258;-42
2022/05/04 10:17:38;;;;;;;5.43;1.70;;;;;;;;;;5035946;28;20667;-44
2022/05/04 10:20:11;;;;;;;5.15;1.33;;;;;;;;;;5036469;28;20197;-42
2022/05/04 10:22:41;;;;;;;5.07;1.75;;;;;;;;;;5019066;28;20537;-42
2022/05/04 10:25:09;;;;;;;5.07;1.50;;;;;;;;;;5035513;28;20197;-41
2022/05/04 10:27:40;;;;;;;5.38;1.80;;;;;;;;;;5036876;28;20231;-42
2022/05/04 10:32:59;;;;;;;5.80;1.73;;;;;;;;;;5036061;28;20200;-42
2022/05/04 10:35:43;;;;;;;5.72;1.40;;;;;;;;;;5018796;28;20568;-41
2022/05/04 10:38:10;;;;;;;7.63;1.20;;;;;;;;;;5036094;28;20635;-41
2022/05/04 10:40:38;;;;;;;3.53;1.35;;;;;;;;;;5036009;28;20252;-41
2022/05/04 10:43:17;;;;;;;6.90;1.85;;;;;;;;;;5036063;28;20239;-43
2022/05/04 10:45:47;;;;;;;4.75;1.38;;;;;;;;;;5035872;28;20204;-42
2022/05/04 10:48:17;;;;;;;2.95;1.27;;;;;;;;;;5035822;28;20266;-42
2022/05/04 10:50:52;;;;;;;4.80;1.60;;;;;;;;;;5033838;28;20255;-45
2022/05/04 10:53:24;;;;;;;4.40;1.38;;;;;;;;;;5035049;28;20699;-45
2022/05/04 10:56:00;;;;;;;19.30;1.73;;;;;;;;;;5035506;28;20228;-44
2022/05/04 10:58:36;;;;;;;2.97;1.33;;;;;;;;;;5031584;28;20255;-46
2022/05/04 11:01:03;;;;;;;5.55;1.52;;;;;;;;;;5034793;28;20646;-45
2022/05/04 11:03:35;;;;;;;6.90;1.27;;;;;;;;;;5035365;28;20632;-45
2022/05/04 11:06:05;;;;;;;7.05;1.50;;;;;;;;;;5035401;28;20201;-45
2022/05/04 11:08:45;;;;;;;4.05;1.67;;;;;;;;;;5034466;28;20192;-44
2022/05/04 11:11:12;;;;;;;4.47;1.67;;;;;;;;;;5035029;28;20196;-45
2022/05/04 11:13:42;;;;;;;4.75;1.58;;;;;;;;;;5035185;28;20205;-45
2022/05/04 11:16:09;;;;;;;6.63;1.50;;;;;;;;;;5035135;28;20201;-46
2022/05/04 11:18:38;;;;;;;6.20;1.52;;;;;;;;;;5034484;28;20211;-45
2022/05/04 11:21:16;;;;;;;4.40;1.55;;;;;;;;;;5035197;28;20236;-45
2022/05/04 11:23:53;;;;;;;5.05;1.55;;;;;;;;;;5035330;28;20192;-46
2022/05/04 11:26:33;;;;;;;4.05;1.55;;;;;;;;;;5035412;28;20235;-46
2022/05/04 11:29:00;;;;;;;5.43;1.30;;;;;;;;;;5034996;28;20192;-46
2022/05/04 11:31:27;;;;;;;5.00;1.60;;;;;;;;;;5034435;28;20216;-45
2022/05/04 11:33:54;;;;;;;4.07;1.67;;;;;;;;;;5034778;28;20239;-45
2022/05/04 11:36:22;;;;;;;8.48;1.90;;;;;;;;;;5035093;28;20196;-45
2022/05/04 11:38:50;;;;;;;5.93;1.50;;;;;;;;;;5034800;28;20200;-45
2022/05/04 11:41:17;;;;;;;6.35;1.83;;;;;;;;;;5034632;28;20553;-45
2022/05/04 11:43:44;;;;;;;4.80;1.35;;;;;;;;;;5034612;28;20643;-47
2022/05/04 11:46:12;;;;;;;8.63;2.03;;;;;;;;;;5034643;28;20193;-47
2022/05/04 11:48:42;;;;;;;5.50;1.58;;;;;;;;;;5033248;28;20200;-47
2022/05/04 11:51:14;;;;;;;4.80;1.83;;;;;;;;;;5034759;28;20243;-47
2022/05/04 11:53:41;;;;;;;5.55;1.60;;;;;;;;;;5032219;28;20197;-45
2022/05/04 11:56:09;;;;;;;12.35;2.70;;;;;;;;;;5025582;28;20197;-46
2022/05/04 11:58:37;;;;;;;4.35;1.77;;;;;;;;;;5034417;28;20620;-45
2022/05/04 12:01:06;;;;;;;4.15;1.58;;;;;;;;;;5034429;28;20229;-47
2022/05/04 12:03:35;;;;;;;5.85;1.70;;;;;;;;;;5034733;28;20223;-46
2022/05/04 12:06:05;;;;;;;2.45;1.42;;;;;;;;;;5034288;28;20213;-46
2022/05/04 12:08:33;;;;;;;3.60;1.83;;;;;;;;;;5028198;28;20243;-45
2022/05/04 12:11:00;;;;;;;11.52;1.70;;;;;;;;;;5050722;28;20686;-46
2022/05/04 12:13:27;;;;;;;12.85;1.77;;;;;;;;;;5040909;28;20236;-46
2022/05/04 12:15:56;;;;;;;2.85;1.58;;;;;;;;;;5044637;28;20243;-45
2022/05/04 12:18:32;;;;;;;4.45;1.73;;;;;;;;;;5045590;28;20224;-46
2022/05/04 12:21:05;;;;;;;6.55;1.95;;;;;;;;;;5045833;28;20235;-46
2022/05/04 12:23:34;;;;;;;6.55;1.85;;;;;;;;;;5042978;28;20238;-46
2022/05/04 12:26:02;;;;;;;4.15;1.70;;;;;;;;;;5053500;28;20270;-45
2022/05/04 12:28:30;;;;;;;4.05;1.30;;;;;;;;;;5053505;28;20223;-45
2022/05/04 12:33:43;;;;;;;6.13;1.52;;;;;;;;;;5053950;28;20258;-46
2022/05/04 12:36:12;;;;;;;5.20;1.50;;;;;;;;;;5031884;28;20231;-47
2022/05/04 12:38:46;;;;;;;2.97;1.33;;;;;;;;;;5041629;28;20228;-46
2022/05/04 12:41:17;;;;;;;5.72;1.35;;;;;;;;;;5015140;28;20248;-46
2022/05/04 12:43:44;;;;;;;5.72;1.63;;;;;;;;;;5046475;28;20240;-47
2022/05/04 12:46:13;;;;;;;4.88;1.50;;;;;;;;;;5036574;28;20228;-46
2022/05/04 12:48:42;;;;;;;5.32;1.23;;;;;;;;;;5032775;28;20220;-46
2022/05/04 12:51:11;;;;;;;7.03;1.38;;;;;;;;;;5040480;28;20294;-46
2022/05/04 12:53:38;;;;;;;8.13;1.45;;;;;;;;;;5037249;28;20233;-47
2022/05/04 12:58:53;;;;;;;5.75;1.65;;;;;;;;;;5037511;28;20288;-46
2022/05/04 13:01:22;;;;;;;4.43;1.75;;;;;;;;;;5036629;28;20232;-46
2022/05/04 13:03:50;;;;;;;5.07;1.40;;;;;;;;;;5036046;28;20239;-46
2022/05/04 13:06:18;;;;;;;5.32;1.48;;;;;;;;;;5036307;28;20232;-47
2022/05/04 13:08:48;;;;;;;3.47;1.55;;;;;;;;;;5037032;28;20229;-46
2022/05/04 13:11:16;;;;;;;2.50;1.10;;;;;;;;;;5037018;28;20315;-45
2022/05/04 13:13:43;;;;;;;5.85;1.55;;;;;;;;;;5037002;28;20593;-47
2022/05/04 13:16:10;;;;;;;2.40;1.30;;;;;;;;;;5033553;28;20592;-45
2022/05/04 13:18:38;;;;;;;3.42;1.55;;;;;;;;;;5032267;28;20232;-45
2022/05/04 13:21:06;;;;;;;3.65;1.60;;;;;;;;;;5036032;28;20229;-46
2022/05/04 13:23:34;;;;;;;6.00;1.48;;;;;;;;;;5036665;28;20225;-45
2022/05/04 13:26:01;;;;;;;6.80;1.63;;;;;;;;;;5036211;28;20229;-46
2022/05/04 13:28:28;;;;;;;4.88;1.35;;;;;;;;;;5036613;28;20224;-46
2022/05/04 13:30:55;;;;;;;6.18;2.10;;;;;;;;;;5036415;28;20558;-46
2022/05/04 13:33:23;;;;;;;6.28;1.63;;;;;;;;;;5035908;28;20223;-47
2022/05/04 13:35:50;;;;;;;4.43;1.67;;;;;;;;;;5035226;28;20240;-46
2022/05/04 13:38:17;;;;;;;5.13;1.50;;;;;;;;;;5036309;28;20232;-46
2022/05/04 13:40:44;;;;;;;7.40;1.75;;;;;;;;;;5036357;28;20228;-46
2022/05/04 13:43:12;;;;;;;7.90;1.60;;;;;;;;;;5035349;28;20232;-46
2022/05/04 13:45:39;;;;;;;6.55;1.80;;;;;;;;;;5036415;28;20656;-45
2022/05/04 13:48:06;;;;;;;4.05;1.45;;;;;;;;;;5036094;28;20312;-46
2022/05/04 13:53:19;;;;;;;8.30;1.58;;;;;;;;;;5055420;28;20239;-46
2022/05/04 13:55:51;;;;;;;7.65;1.55;;;;;;;;;;5056154;28;20220;-45
2022/05/04 13:58:20;;;;;;;4.07;1.40;;;;;;;;;;5055761;28;20228;-46
2022/05/04 14:00:49;;;;;;;3.83;1.50;;;;;;;;;;5055887;28;20227;-46
2022/05/04 14:03:19;;;;;;;8.13;1.60;;;;;;;;;;5055888;28;20612;-45
2022/05/04 14:05:46;;;;;;;7.00;1.48;;;;;;;;;;5055446;28;20224;-46
2022/05/04 14:08:13;;;;;;;5.95;1.45;;;;;;;;;;5055904;28;20236;-45
2022/05/04 14:10:46;;;;;;;4.18;1.20;;;;;;;;;;5041110;28;20299;-46
2022/05/04 14:13:15;;;;;;;3.95;1.55;;;;;;;;;;5035642;28;20243;-46
2022/05/04 14:15:43;;;;;;;3.97;1.42;;;;;;;;;;5035609;28;20690;-47
2022/05/04 14:18:11;;;;;;;1.98;1.25;;;;;;;;;;5035776;28;20237;-45
2022/05/04 14:20:39;;;;;;;4.95;2.08;;;;;;;;;;5034989;28;20243;-45
2022/05/04 14:23:08;;;;;;;8.15;1.50;;;;;;;;;;5035311;28;20587;-46
2022/05/04 14:25:35;;;;;;;5.35;1.52;;;;;;;;;;5035264;28;20283;-45
2022/05/04 14:28:02;;;;;;;3.63;1.80;;;;;;;;;;5035263;28;20244;-46
2022/05/04 14:30:30;;;;;;;4.07;1.60;;;;;;;;;;5034999;28;20228;-44
2022/05/04 14:32:57;;;;;;;2.95;1.30;;;;;;;;;;5035008;28;20224;-45
2022/05/04 14:35:24;;;;;;;3.00;1.27;;;;;;;;;;5029861;28;20319;-46
2022/05/04 14:37:51;;;;;;;5.63;1.35;;;;;;;;;;5035197;28;20237;-46
2022/05/04 14:40:18;;;;;;;5.65;1.45;;;;;;;;;;5035504;28;20232;-46
2022/05/04 14:42:47;;;;;;;3.90;1.58;;;;;;;;;;5035333;28;20244;-46
2022/05/04 14:45:14;;;;;;;2.85;1.40;;;;;;;;;;5034479;28;20220;-45
2022/05/04 14:47:41;;;;;;;3.60;1.58;;;;;;;;;;5033667;28;20228;-43
2022/05/04 14:50:08;;;;;;;1.70;1.30;;;;;;;;;;5033347;28;20232;-43
2022/05/04 14:52:36;;;;;;;3.70;1.60;;;;;;;;;;5033402;28;20663;-44
2022/05/04 14:55:04;;;;;;;7.85;1.70;;;;;;;;;;5030833;28;20221;-44
2022/05/04 14:57:31;;;;;;;2.75;1.20;;;;;;;;;;5032888;28;20224;-43
2022/05/04 14:59:59;;;;;;;3.47;1.08;;;;;;;;;;5033632;28;20231;-44
2022/05/04 15:02:26;;;;;;;7.35;1.73;;;;;;;;;;5032994;28;20237;-46
2022/05/04 15:05:03;;;;;;;4.35;1.50;;;;;;;;;;5032803;28;20221;-45
2022/05/04 15:07:32;;;;;;;5.10;1.38;;;;;;;;;;5030042;28;20220;-43
2022/05/04 15:10:00;;;;;;;4.38;1.40;;;;;;;;;;5033427;28;20221;-44
2022/05/04 15:12:27;;;;;;;6.32;1.42;;;;;;;;;;5033045;28;20659;-43
2022/05/04 15:14:54;;;;;;;5.68;1.52;;;;;;;;;;5032462;28;20742;-47
2022/05/04 15:17:22;;;;;;;4.75;1.50;;;;;;;;;;5028697;28;20275;-47
2022/05/04 15:19:49;;;;;;;8.07;1.38;;;;;;;;;;5031184;28;20560;-44
2022/05/04 15:22:16;;;;;;;5.65;1.35;;;;;;;;;;5030997;28;20228;-45
2022/05/04 15:24:45;;;;;;;5.97;1.20;;;;;;;;;;5030333;28;20559;-46
2022/05/04 15:27:12;;;;;;;5.63;1.73;;;;;;;;;;5032159;28;20272;-44
2022/05/04 15:29:41;;;;;;;5.65;1.42;;;;;;;;;;5031141;28;20761;-45
2022/05/04 15:32:10;;;;;;;3.83;1.10;;;;;;;;;;5031552;28;20228;-47